createdAt,value
2017-09-08T00:00:57.475Z,61.58
2017-09-08T00:03:23.555Z,61.66
2017-09-08T00:05:49.639Z,61.55
2017-09-08T00:08:15.743Z,61.32
2017-09-08T00:10:41.800Z,61.43
2017-09-08T00:13:07.879Z,61.50
2017-09-08T00:15:33.943Z,61.28
2017-09-08T00:18:00.059Z,60.84
2017-09-08T00:20:26.870Z,60.38
2017-09-08T00:22:52.943Z,60.70
2017-09-08T00:25:19.035Z,60.57
2017-09-08T00:27:45.155Z,60.32
2017-09-08T00:30:11.269Z,60.15
2017-09-08T00:32:37.321Z,60.31
2017-09-08T00:35:04.134Z,60.35
2017-09-08T00:37:30.221Z,60.09
2017-09-08T00:39:56.297Z,59.94
2017-09-08T00:42:23.129Z,59.94
2017-09-08T00:44:49.239Z,60.20
2017-09-08T00:47:15.363Z,60.06
2017-09-08T00:49:41.431Z,60.41
2017-09-08T00:52:08.276Z,60.84
2017-09-08T00:54:34.375Z,60.88
2017-09-08T00:57:00.489Z,60.90
2017-09-08T00:59:26.560Z,60.75
2017-09-08T01:01:53.364Z,60.64
2017-09-08T01:04:19.478Z,60.57
2017-09-08T01:06:45.596Z,60.54
2017-09-08T01:09:11.682Z,60.89
2017-09-08T01:11:38.533Z,61.23
2017-09-08T01:14:04.612Z,61.26
2017-09-08T01:16:30.704Z,61.52
2017-09-08T01:18:56.820Z,61.45
2017-09-08T01:21:22.874Z,61.79
2017-09-08T01:23:48.956Z,62.13
2017-09-08T01:26:15.796Z,62.40
2017-09-08T01:28:42.605Z,62.33
2017-09-08T01:31:08.676Z,62.16
2017-09-08T01:33:34.844Z,62.03
2017-09-08T01:36:00.919Z,62.39
2017-09-08T01:38:27.729Z,62.46
2017-09-08T01:40:53.847Z,62.26
2017-09-08T01:43:19.945Z,62.31
2017-09-08T01:45:46.021Z,62.37
2017-09-08T01:48:12.144Z,62.24
2017-09-08T01:50:38.240Z,62.20
2017-09-08T01:53:04.359Z,62.07
2017-09-08T01:55:30.440Z,62.09
2017-09-08T01:57:57.256Z,62.06
2017-09-08T02:00:23.353Z,61.49
2017-09-08T02:02:49.422Z,61.25
2017-09-08T02:05:15.509Z,61.16
2017-09-08T02:07:41.633Z,60.80
2017-09-08T02:10:07.715Z,60.73
2017-09-08T02:12:34.499Z,60.69
2017-09-08T02:15:00.565Z,60.55
2017-09-08T02:17:27.379Z,60.57
2017-09-08T02:19:53.477Z,60.52
2017-09-08T02:22:19.545Z,60.31
2017-09-08T02:24:45.625Z,60.50
2017-09-08T02:27:11.715Z,59.99
2017-09-08T02:29:38.561Z,60.02
2017-09-08T02:32:05.343Z,59.58
2017-09-08T02:34:31.463Z,59.75
2017-09-08T02:36:57.528Z,59.64
2017-09-08T02:39:23.613Z,59.40
2017-09-08T02:41:49.695Z,59.19
2017-09-08T02:44:15.779Z,58.91
2017-09-08T02:46:41.892Z,58.73
2017-09-08T02:49:08.003Z,58.83
2017-09-08T02:51:34.112Z,58.69
2017-09-08T02:54:00.978Z,58.23
2017-09-08T02:56:27.062Z,58.20
2017-09-08T02:58:53.129Z,58.25
2017-09-08T03:01:19.236Z,58.40
2017-09-08T03:03:45.360Z,58.04
2017-09-08T03:06:12.204Z,58.23
2017-09-08T03:08:39.044Z,58.01
2017-09-08T03:11:05.883Z,58.21
2017-09-08T03:13:32.740Z,58.28
2017-09-08T03:15:59.588Z,58.28
2017-09-08T03:18:25.688Z,58.25
2017-09-08T03:20:52.536Z,58.24
2017-09-08T03:23:19.345Z,58.38
2017-09-08T03:25:45.408Z,58.11
2017-09-08T03:28:12.225Z,58.34
2017-09-08T03:30:38.293Z,57.83
2017-09-08T03:33:05.269Z,57.53
2017-09-08T03:35:31.345Z,57.53
2017-09-08T03:37:58.164Z,57.58
2017-09-08T03:40:24.821Z,57.72
2017-09-08T03:42:50.893Z,57.47
2017-09-08T03:45:16.996Z,57.45
2017-09-08T03:47:43.101Z,57.73
2017-09-08T03:50:09.948Z,57.64
2017-09-08T03:52:36.811Z,57.37
2017-09-08T03:55:03.007Z,56.86
2017-09-08T03:57:29.063Z,57.15
2017-09-08T03:59:55.184Z,57.01
2017-09-08T04:02:22.003Z,57.04
2017-09-08T04:04:48.808Z,56.69
2017-09-08T04:07:15.063Z,56.90
2017-09-08T04:09:41.131Z,56.97
2017-09-08T04:12:07.213Z,56.62
2017-09-08T04:14:33.671Z,56.56
2017-09-08T04:17:00.508Z,56.40
2017-09-08T04:19:27.352Z,56.08
2017-09-08T04:21:54.178Z,56.25
2017-09-08T04:24:20.329Z,56.15
2017-09-08T04:26:46.430Z,56.26
2017-09-08T04:29:12.482Z,56.23
2017-09-08T04:31:39.332Z,55.67
2017-09-08T04:34:06.189Z,55.54
2017-09-08T04:36:32.264Z,55.90
2017-09-08T04:38:58.348Z,55.79
2017-09-08T04:41:24.440Z,55.69
2017-09-08T04:43:51.280Z,55.36
2017-09-08T04:46:17.444Z,55.82
2017-09-08T04:48:43.525Z,55.64
2017-09-08T04:51:09.580Z,55.79
2017-09-08T04:53:35.710Z,55.71
2017-09-08T04:56:01.767Z,55.46
2017-09-08T04:58:27.860Z,55.67
2017-09-08T05:00:53.986Z,55.77
2017-09-08T05:03:20.100Z,55.41
2017-09-08T05:05:46.236Z,55.79
2017-09-08T05:08:12.352Z,55.58
2017-09-08T05:10:39.229Z,55.81
2017-09-08T05:13:05.304Z,55.93
2017-09-08T05:15:32.120Z,56.12
2017-09-08T05:17:58.237Z,55.49
2017-09-08T05:20:24.309Z,55.18
2017-09-08T05:22:51.173Z,55.22
2017-09-08T05:25:17.256Z,54.73
2017-09-08T05:27:43.497Z,54.72
2017-09-08T05:30:10.325Z,54.73
2017-09-08T05:32:36.413Z,54.98
2017-09-08T05:35:02.487Z,54.74
2017-09-08T05:37:29.305Z,54.31
2017-09-08T05:39:55.405Z,54.57
2017-09-08T05:42:21.475Z,54.13
2017-09-08T05:44:47.583Z,53.63
2017-09-08T05:47:13.705Z,53.96
2017-09-08T05:49:39.830Z,52.90
2017-09-08T05:52:05.918Z,53.07
2017-09-08T05:54:32.004Z,53.28
2017-09-08T05:56:58.106Z,53.46
2017-09-08T05:59:24.723Z,53.50
2017-09-08T06:01:50.795Z,53.07
2017-09-08T06:04:16.923Z,52.89
2017-09-08T06:06:50.851Z,52.65
2017-09-08T06:09:17.688Z,52.49
2017-09-08T06:11:44.500Z,51.46
2017-09-08T06:14:10.592Z,51.32
2017-09-08T06:16:36.695Z,51.15
2017-09-08T06:19:02.763Z,51.03
2017-09-08T06:21:28.833Z,51.16
2017-09-08T06:24:03.722Z,52.20
2017-09-08T06:26:29.840Z,52.13
2017-09-08T06:28:55.912Z,51.68
2017-09-08T06:31:22.032Z,51.54
2017-09-08T06:33:48.894Z,51.54
2017-09-08T06:36:14.954Z,51.91
2017-09-08T06:38:41.058Z,51.35
2017-09-08T06:41:07.123Z,51.30
2017-09-08T06:43:33.186Z,50.41
2017-09-08T06:46:00.026Z,50.05
2017-09-08T06:48:26.920Z,50.10
2017-09-08T06:50:53.077Z,49.66
2017-09-08T06:53:19.136Z,50.13
2017-09-08T06:55:46.549Z,50.03
2017-09-08T06:58:12.636Z,50.27
2017-09-08T07:00:38.763Z,50.25
2017-09-08T07:03:04.869Z,51.09
2017-09-08T07:05:30.975Z,51.42
2017-09-08T07:07:57.819Z,51.46
2017-09-08T07:10:24.612Z,51.77
2017-09-08T07:12:50.724Z,51.02
2017-09-08T07:15:16.845Z,51.00
2017-09-08T07:17:43.720Z,51.35
2017-09-08T07:20:09.841Z,50.38
2017-09-08T07:22:35.942Z,49.88
2017-09-08T07:25:02.050Z,49.93
2017-09-08T07:27:28.134Z,49.91
2017-09-08T07:29:54.227Z,49.42
2017-09-08T07:32:20.311Z,49.70
2017-09-08T07:34:47.231Z,49.79
2017-09-08T07:37:13.307Z,49.37
2017-09-08T07:39:40.443Z,49.62
2017-09-08T07:42:07.315Z,50.07
2017-09-08T07:44:33.405Z,49.63
2017-09-08T07:47:00.211Z,49.37
2017-09-08T07:49:26.384Z,48.26
2017-09-08T07:51:53.204Z,46.97
2017-09-08T07:54:19.276Z,45.61
2017-09-08T07:56:45.355Z,44.46
2017-09-08T07:59:12.220Z,44.18
2017-09-08T08:01:39.050Z,42.57
2017-09-08T08:04:06.076Z,43.22
2017-09-08T08:06:32.243Z,43.67
2017-09-08T08:08:59.066Z,43.07
2017-09-08T08:11:25.149Z,41.97
2017-09-08T08:13:51.239Z,42.05
2017-09-08T08:16:17.297Z,42.05
2017-09-08T08:18:43.373Z,43.99
2017-09-08T08:21:10.214Z,43.10
2017-09-08T08:23:37.034Z,42.84
2017-09-08T08:26:03.149Z,43.35
2017-09-08T08:28:30.075Z,43.55
2017-09-08T08:30:56.180Z,44.32
2017-09-08T08:33:22.303Z,43.27
2017-09-08T08:35:48.373Z,43.29
2017-09-08T08:38:14.473Z,43.82
2017-09-08T08:40:40.553Z,45.18
2017-09-08T08:43:07.363Z,44.89
2017-09-08T08:45:33.484Z,44.75
2017-09-08T08:47:59.616Z,43.39
2017-09-08T08:50:25.743Z,42.39
2017-09-08T08:52:51.853Z,42.61
2017-09-08T08:55:17.959Z,43.15
2017-09-08T08:57:44.069Z,42.79
2017-09-08T09:00:10.169Z,42.97
2017-09-08T09:02:37.037Z,42.73
2017-09-08T09:05:03.919Z,43.91
2017-09-08T09:07:30.018Z,44.92
2017-09-08T09:09:56.137Z,44.02
2017-09-08T09:12:22.253Z,45.09
2017-09-08T09:14:49.093Z,44.73
2017-09-08T09:17:15.898Z,45.21
2017-09-08T09:19:42.012Z,44.06
2017-09-08T09:22:08.141Z,44.67
2017-09-08T09:24:34.263Z,44.99
2017-09-08T09:27:00.336Z,44.20
2017-09-08T09:29:26.413Z,43.74
2017-09-08T09:31:52.543Z,43.77
2017-09-08T09:34:18.632Z,42.56
2017-09-08T09:36:45.495Z,43.28
2017-09-08T09:39:11.623Z,43.13
2017-09-08T09:41:37.755Z,42.62
2017-09-08T09:44:03.847Z,41.56
2017-09-08T09:46:29.932Z,41.32
2017-09-08T09:48:56.020Z,41.22
2017-09-08T09:51:22.099Z,39.10
2017-09-08T09:53:49.764Z,39.26
2017-09-08T09:56:16.656Z,38.33
2017-09-08T09:58:42.775Z,38.83
2017-09-08T10:01:08.878Z,40.11
2017-09-08T10:03:35.720Z,39.18
2017-09-08T10:06:02.550Z,38.15
2017-09-08T10:08:28.634Z,38.24
2017-09-08T10:10:54.743Z,38.75
2017-09-08T10:13:20.806Z,38.54
2017-09-08T10:15:46.946Z,37.07
2017-09-08T10:18:13.151Z,37.42
2017-09-08T10:20:39.269Z,35.93
2017-09-08T10:23:05.379Z,35.95
2017-09-08T10:25:31.533Z,35.40
2017-09-08T10:27:57.653Z,37.32
2017-09-08T10:30:23.773Z,38.83
2017-09-08T10:32:49.902Z,38.53
2017-09-08T10:35:17.007Z,37.57
2017-09-08T10:37:43.129Z,39.01
2017-09-08T10:40:09.967Z,38.31
2017-09-08T10:42:36.832Z,37.20
2017-09-08T10:45:02.971Z,37.95
2017-09-08T10:47:29.167Z,36.95
2017-09-08T10:49:56.073Z,38.68
2017-09-08T10:52:22.205Z,38.58
2017-09-08T10:54:48.369Z,37.43
2017-09-08T10:57:15.272Z,35.78
2017-09-08T10:59:41.532Z,37.00
2017-09-08T11:02:08.437Z,36.76
2017-09-08T11:04:34.608Z,35.87
2017-09-08T11:07:01.491Z,35.80
2017-09-08T11:09:27.680Z,35.30
2017-09-08T11:11:54.598Z,36.05
2017-09-08T11:14:20.794Z,36.45
2017-09-08T11:16:46.938Z,36.72
2017-09-08T11:19:13.098Z,36.25
2017-09-08T11:21:39.940Z,35.70
2017-09-08T11:24:06.116Z,36.30
2017-09-08T11:26:33.252Z,37.21
2017-09-08T11:28:59.442Z,38.07
2017-09-08T11:31:25.545Z,38.18
2017-09-08T11:33:57.963Z,38.18
2017-09-08T11:36:30.864Z,38.92
2017-09-08T11:38:56.960Z,38.89
2017-09-08T11:41:23.101Z,38.62
2017-09-08T11:43:49.474Z,38.13
2017-09-08T11:46:15.592Z,38.12
2017-09-08T11:48:41.703Z,37.60
2017-09-08T11:51:07.884Z,37.71
2017-09-08T11:53:33.993Z,37.68
2017-09-08T11:56:00.243Z,35.96
2017-09-08T11:58:26.478Z,35.30
2017-09-08T12:00:52.622Z,33.20
2017-09-08T12:03:18.756Z,33.33
2017-09-08T12:05:45.796Z,35.13
2017-09-08T12:08:12.723Z,33.49
2017-09-08T12:10:39.666Z,32.78
2017-09-08T12:13:05.781Z,32.27
2017-09-08T12:15:32.022Z,29.86
2017-09-08T12:17:58.144Z,29.40
2017-09-08T12:20:24.261Z,28.87
2017-09-08T12:22:50.349Z,28.25
2017-09-08T12:25:16.585Z,27.09
2017-09-08T12:27:42.701Z,24.69
2017-09-08T12:30:08.837Z,23.31
2017-09-08T12:32:34.973Z,23.29
2017-09-08T12:35:01.099Z,24.45
2017-09-08T12:37:27.369Z,26.92
2017-09-08T12:39:53.535Z,28.41
2017-09-08T12:42:19.638Z,31.37
2017-09-08T12:44:45.751Z,33.13
2017-09-08T12:47:12.617Z,33.73
2017-09-08T12:49:39.517Z,33.12
2017-09-08T12:52:05.923Z,33.45
2017-09-08T12:54:32.020Z,35.02
2017-09-08T12:56:58.117Z,36.87
2017-09-08T12:59:24.429Z,37.66
2017-09-08T13:01:50.494Z,37.28
2017-09-08T13:04:16.590Z,36.62
2017-09-08T13:06:42.687Z,36.96
2017-09-08T13:09:08.745Z,36.85
2017-09-08T13:11:34.864Z,36.11
2017-09-08T13:14:00.957Z,35.12
2017-09-08T13:16:27.020Z,35.35
2017-09-08T13:18:53.129Z,34.69
2017-09-08T13:21:19.229Z,33.34
2017-09-08T13:23:45.362Z,33.36
2017-09-08T13:26:11.456Z,32.71
2017-09-08T13:28:38.302Z,32.73
2017-09-08T13:31:04.444Z,33.76
2017-09-08T13:33:30.582Z,35.45
2017-09-08T13:35:56.676Z,36.34
2017-09-08T13:38:22.748Z,37.28
2017-09-08T13:40:48.899Z,37.68
2017-09-08T13:43:15.100Z,37.94
2017-09-08T13:45:41.222Z,37.46
2017-09-08T13:48:08.302Z,38.00
2017-09-08T13:50:34.366Z,37.76
2017-09-08T13:53:00.726Z,37.02
2017-09-08T13:55:26.796Z,38.09
2017-09-08T13:57:52.891Z,38.25
2017-09-08T14:00:19.032Z,38.46
2017-09-08T14:02:45.212Z,38.18
2017-09-08T14:05:11.340Z,38.25
2017-09-08T14:07:37.450Z,38.74
2017-09-08T14:10:04.290Z,39.85
2017-09-08T14:12:30.384Z,40.04
2017-09-08T14:14:56.474Z,39.79
2017-09-08T14:17:22.612Z,39.79
2017-09-08T14:19:48.712Z,39.05
2017-09-08T14:22:14.820Z,38.63
2017-09-08T14:24:41.733Z,39.00
2017-09-08T14:27:07.826Z,39.05
2017-09-08T14:29:33.928Z,39.86
2017-09-08T14:32:00.027Z,40.06
2017-09-08T14:34:26.851Z,39.41
2017-09-08T14:36:52.997Z,39.81
2017-09-08T14:39:19.824Z,39.81
2017-09-08T14:41:46.699Z,40.44
2017-09-08T14:44:13.561Z,40.19
2017-09-08T14:46:39.658Z,40.39
2017-09-08T14:49:06.493Z,39.63
2017-09-08T14:51:32.763Z,40.40
2017-09-08T14:53:58.871Z,41.33
2017-09-08T14:56:25.003Z,41.90
2017-09-08T14:58:51.124Z,42.33
2017-09-08T15:01:17.217Z,41.58
2017-09-08T15:03:43.321Z,41.74
2017-09-08T15:06:09.420Z,42.12
2017-09-08T15:08:35.534Z,43.16
2017-09-08T15:11:01.642Z,41.92
2017-09-08T15:13:28.447Z,42.47
2017-09-08T15:15:54.548Z,42.63
2017-09-08T15:18:20.685Z,42.63
2017-09-08T15:20:46.803Z,42.56
2017-09-08T15:23:13.040Z,42.32
2017-09-08T15:25:40.011Z,42.50
2017-09-08T15:28:06.098Z,41.76
2017-09-08T15:30:32.227Z,41.70
2017-09-08T15:32:58.371Z,41.61
2017-09-08T15:35:24.472Z,41.52
2017-09-08T15:37:50.545Z,41.59
2017-09-08T15:40:16.629Z,41.24
2017-09-08T15:42:42.708Z,40.49
2017-09-08T15:45:08.774Z,40.72
2017-09-08T15:47:34.842Z,41.44
2017-09-08T15:50:00.936Z,41.68
2017-09-08T15:52:27.001Z,41.63
2017-09-08T15:54:53.099Z,41.86
2017-09-08T15:57:19.186Z,41.44
2017-09-08T15:59:45.997Z,41.33
2017-09-08T16:02:12.091Z,41.30
2017-09-08T16:04:38.223Z,41.03
2017-09-08T16:07:04.380Z,40.56
2017-09-08T16:09:30.496Z,40.86
2017-09-08T16:11:56.601Z,40.74
2017-09-08T16:14:22.994Z,41.38
2017-09-08T16:16:49.074Z,41.50
2017-09-08T16:19:15.174Z,41.19
2017-09-08T16:21:41.232Z,41.57
2017-09-08T16:24:07.444Z,41.99
2017-09-08T16:26:33.517Z,41.35
2017-09-08T16:28:59.746Z,41.00
2017-09-08T16:31:26.608Z,40.91
2017-09-08T16:33:52.713Z,40.42
2017-09-08T16:36:18.784Z,41.21
2017-09-08T16:38:44.881Z,41.24
2017-09-08T16:41:10.994Z,40.93
2017-09-08T16:43:37.972Z,41.08
2017-09-08T16:46:04.040Z,41.12
2017-09-08T16:48:30.864Z,41.54
2017-09-08T16:50:56.969Z,41.70
2017-09-08T16:53:23.076Z,41.59
2017-09-08T16:55:49.180Z,42.34
2017-09-08T16:58:16.028Z,42.25
2017-09-08T17:00:42.861Z,42.76
2017-09-08T17:03:09.709Z,42.63
2017-09-08T17:05:36.543Z,43.63
2017-09-08T17:08:03.403Z,43.95
2017-09-08T17:10:30.259Z,43.83
2017-09-08T17:12:56.341Z,44.33
2017-09-08T17:15:22.501Z,44.59
2017-09-08T17:17:49.358Z,44.29
2017-09-08T17:20:15.443Z,44.36
2017-09-08T17:22:41.556Z,45.01
2017-09-08T17:25:07.660Z,45.28
2017-09-08T17:27:33.777Z,45.25
2017-09-08T17:30:01.634Z,45.86
2017-09-08T17:32:29.298Z,46.11
2017-09-08T17:34:56.167Z,46.71
2017-09-08T17:37:22.281Z,46.52
2017-09-08T17:39:48.388Z,46.48
2017-09-08T17:42:14.596Z,47.12
2017-09-08T17:44:40.706Z,47.12
2017-09-08T17:47:07.568Z,46.87
2017-09-08T17:49:33.650Z,47.15
2017-09-08T17:52:00.709Z,47.14
2017-09-08T17:54:27.539Z,47.49
2017-09-08T17:56:53.732Z,47.08
2017-09-08T17:59:19.826Z,47.44
2017-09-08T18:01:46.690Z,47.44
2017-09-08T18:04:12.790Z,47.82
2017-09-08T18:06:38.904Z,48.45
2017-09-08T18:09:04.980Z,48.12
2017-09-08T18:11:31.097Z,48.34
2017-09-08T18:13:57.217Z,48.68
2017-09-08T18:16:23.359Z,48.61
2017-09-08T18:18:49.480Z,48.66
2017-09-08T18:21:15.582Z,48.46
2017-09-08T18:23:42.417Z,48.89
2017-09-08T18:26:09.340Z,49.11
2017-09-08T18:28:35.425Z,48.63
2017-09-08T18:31:02.928Z,49.39
2017-09-08T18:33:29.072Z,49.18
2017-09-08T18:35:56.151Z,49.19
2017-09-08T18:41:18.636Z,49.72
2017-09-08T18:43:44.758Z,49.82
2017-09-08T18:46:11.132Z,50.01
2017-09-08T18:48:37.204Z,50.06
2017-09-08T18:54:12.989Z,50.40
2017-09-08T18:56:39.849Z,50.49
2017-09-08T18:59:05.993Z,51.26
2017-09-08T19:01:32.101Z,51.00
2017-09-08T19:03:58.173Z,50.82
2017-09-08T19:06:24.275Z,51.41
2017-09-08T19:08:50.335Z,51.11
2017-09-08T19:11:16.392Z,51.09
2017-09-08T19:13:42.541Z,51.55
2017-09-08T19:16:08.689Z,51.24
2017-09-08T19:18:34.811Z,51.86
2017-09-08T19:21:00.897Z,51.41
2017-09-08T19:23:27.709Z,52.01
2017-09-08T19:25:53.805Z,51.93
2017-09-08T19:28:19.929Z,51.81
2017-09-08T19:30:46.039Z,52.12
2017-09-08T19:33:12.285Z,52.14
2017-09-08T19:35:38.362Z,53.02
2017-09-08T19:38:05.227Z,53.10
2017-09-08T19:40:31.355Z,53.34
2017-09-08T19:42:57.443Z,53.10
2017-09-08T19:45:23.531Z,53.46
2017-09-08T19:47:49.627Z,53.92
2017-09-08T19:50:15.705Z,54.10
2017-09-08T19:52:41.835Z,54.34
2017-09-08T19:55:07.950Z,54.29
2017-09-08T19:57:34.126Z,54.42
2017-09-08T20:00:00.997Z,54.53
2017-09-08T20:02:27.192Z,54.86
2017-09-08T20:04:54.050Z,54.72
2017-09-08T20:07:20.263Z,55.11
2017-09-08T20:09:46.390Z,55.24
2017-09-08T20:12:13.298Z,55.26
2017-09-08T20:14:39.409Z,54.96
2017-09-08T20:17:05.557Z,55.10
2017-09-08T20:19:31.672Z,55.02
2017-09-08T20:21:57.750Z,55.27
2017-09-08T20:24:23.852Z,55.28
2017-09-08T20:26:50.721Z,55.62
2017-09-08T20:29:18.039Z,55.40
2017-09-08T20:31:44.144Z,55.25
2017-09-08T20:34:10.304Z,55.61
2017-09-08T20:36:36.396Z,55.89
2017-09-08T20:39:02.524Z,55.57
2017-09-08T20:41:28.721Z,55.71
2017-09-08T20:43:54.881Z,55.76
2017-09-08T20:46:20.976Z,55.36
2017-09-08T20:48:47.245Z,54.96
2017-09-08T20:51:13.322Z,55.02
2017-09-08T20:53:39.406Z,54.29
2017-09-08T20:56:05.528Z,54.43
2017-09-08T20:58:31.625Z,54.86
2017-09-08T21:00:57.696Z,54.77
2017-09-08T21:03:24.537Z,54.54
2017-09-08T21:05:52.052Z,54.67
2017-09-08T21:08:19.090Z,53.94
2017-09-08T21:10:45.186Z,54.06
2017-09-08T21:13:12.022Z,53.92
2017-09-08T21:15:38.833Z,53.97
2017-09-08T21:18:04.925Z,53.47
2017-09-08T21:20:31.011Z,53.59
2017-09-08T21:22:57.845Z,53.42
2017-09-08T21:25:23.973Z,53.79
2017-09-08T21:27:50.793Z,53.61
2017-09-08T21:30:16.855Z,53.43
2017-09-08T21:32:43.697Z,53.00
2017-09-08T21:35:10.551Z,52.79
2017-09-08T21:37:37.353Z,53.04
2017-09-08T21:40:03.453Z,52.47
2017-09-08T21:42:29.514Z,52.25
2017-09-08T21:44:55.623Z,52.44
2017-09-08T21:47:21.685Z,52.69
2017-09-08T21:49:48.500Z,52.10
2017-09-08T21:52:14.588Z,51.72
2017-09-08T21:54:40.696Z,51.99
2017-09-08T21:57:06.776Z,52.11
2017-09-08T21:59:32.836Z,52.53
2017-09-08T22:01:59.656Z,52.56
2017-09-08T22:04:25.700Z,52.80
2017-09-08T22:06:52.544Z,54.22
2017-09-08T22:09:19.350Z,54.46
2017-09-08T22:11:45.420Z,55.33
2017-09-08T22:14:11.500Z,56.31
2017-09-08T22:16:37.608Z,57.09
2017-09-08T22:19:03.720Z,57.23
2017-09-08T22:21:29.812Z,57.66
2017-09-08T22:23:56.654Z,58.09
2017-09-08T22:26:23.484Z,58.42
2017-09-08T22:28:49.571Z,58.80
2017-09-08T22:31:15.635Z,59.09
2017-09-08T22:33:41.737Z,59.34
2017-09-08T22:36:07.801Z,59.45
2017-09-08T22:38:34.601Z,59.56
2017-09-08T22:41:00.679Z,59.91
2017-09-08T22:43:26.743Z,59.59
2017-09-08T22:45:52.850Z,60.35
2017-09-08T22:48:18.933Z,60.46
2017-09-08T22:50:45.754Z,60.35
2017-09-08T22:53:11.853Z,60.81
2017-09-08T22:55:37.945Z,60.52
2017-09-08T22:58:04.769Z,59.67
2017-09-08T23:00:31.776Z,60.01
2017-09-08T23:02:57.840Z,60.10
2017-09-08T23:05:24.661Z,60.32
2017-09-08T23:07:50.753Z,60.49
2017-09-08T23:10:16.918Z,60.17
2017-09-08T23:12:43.040Z,60.24
2017-09-08T23:15:09.147Z,60.48
2017-09-08T23:17:35.207Z,60.74
2017-09-08T23:20:01.281Z,61.14
2017-09-08T23:22:27.344Z,60.88
2017-09-08T23:24:53.454Z,60.63
2017-09-08T23:27:19.598Z,60.52
2017-09-08T23:29:45.677Z,60.77
2017-09-08T23:32:11.752Z,60.61
2017-09-08T23:34:38.572Z,60.96
2017-09-08T23:37:04.647Z,60.63
2017-09-08T23:39:31.486Z,60.79
2017-09-08T23:41:58.280Z,61.06
2017-09-08T23:44:24.386Z,61.42
2017-09-08T23:46:50.482Z,61.07
2017-09-08T23:49:17.320Z,61.21
2017-09-08T23:51:44.176Z,61.23
2017-09-08T23:54:11.003Z,61.58
2017-09-08T23:56:37.816Z,62.14
2017-09-08T23:59:03.885Z,61.96
